KCPR/CPR METAR and TAF weather

Enter ICAO airport designator
Station Type Date Time Source
KCPR METAR 2018/10/22 15:53 UTC NOAA

KCPR 221553Z 02004KT 10SM CLR 11/01 A3025 RMK AO2 SLP224 T01060011


Station Type Date Time Source
KCPR Decoded METAR 2018/10/22 15:53 UTC NOAA

NATRONA COUNTY INTERNATIONAL AIRPORT , WY, United States (KCPR) 42-54N 106-28W 1621M
Oct 22, 2018 - 11:53 AM EDT / 2018.10.22 1553 UTC
Wind: from the NNE (020 degrees) at 5 MPH (4 KT):0
Visibility: 10 mile(s):0
Sky conditions: clear
Temperature: 51.1 F (10.6 C)
Dew Point: 34.0 F (1.1 C)
Relative Humidity: 51%
Pressure (altimeter): 30.25 in. Hg (1024 hPa)
ob: KCPR 221553Z 02004KT 10SM CLR 11/01 A3025 RMK AO2 SLP224 T01060011
cycle: 16

Station Type Date Time Source
KCPR TAF 2018/10/22 12:36 UTC NOAA

TAF KCPR 221134Z 2212/2312 28006KT P6SM FEW250
FM221900 04008KT P6SM SCT250
FM230000 08009KT P6SM FEW070


Example: see airport list